Taylor Lake Village, TX

4:17 AM CDT on August 30, 2016 (GMT -0500)
Harbor Cove Estates | | Change Station

Elev 16 ft 29.57 °N, 95.02 °W | Updated 11 seconds ago

Mostly Cloudy
Mostly Cloudy
76.6 °F
Feels Like 77 °F
N
0.0
Wind Variable Wind from WNW
Gusts 0.0 mph

Today
High -- | Low -- °F
--% Chance of Precip.
Yesterday
High -- | Low -- °F
Precip. -- in
Pressure 29.94 in
Visibility 10.0 miles
Clouds Mostly Cloudy 12000 ft
Heat Index 77 °F
Dew Point 75 °F
Humidity 95%
Rainfall 0.00 in
Snow Depth Not available.
6:56 AM 7:43 PM
Waning Crescent, 4% visible
METAR KEFD 300850Z 03004KT 10SM BKN120 24/23 A2994
Pressure 29.94 in
Visibility 10.0 miles
Clouds Mostly Cloudy 12000 ft
Heat Index 77 °F
Dew Point 75 °F
Humidity 95%
Rainfall 0.00 in
Snow Depth Not available.
6:56 AM 7:43 PM
Waning Crescent, 4% visible
METAR KEFD 300850Z 03004KT 10SM BKN120 24/23 A2994

10-Day Weather Forecast

Almanac

Astronomy

Aug. 30, 2016 Rise Set
Actual Time
Civil Twilight
Nautical Twilight
Astronomical Twilight
Moon
Length of Visible Light
Length of Day
Tomorrow will be .
, % of the Moon is Illuminated

Today's Extremes

State Highs State Lows

Community

WunderPhotos

Upload Photos

1,935,795 photos uploaded!

WunderBlog® & News

Nearby

Air Quality

  Air Quality AQ Index Pollutant
Not available.

Snow Depth

Station Depth Elevation

Earthquake Activity

City Distance Mag. Time & Date
Minimum magnitude displayed is 2.5.

Coastal Water Temperatures

Place Temperature

Stations

Nearby Weather Stations

Station Location Temp. Windchill Dew Point Humidity Wind Precip. Elev Updated Type
                   

Watches & Warnings

There are currently no watches in effect.